Time;durP1;ratioP1;P1;durP2;ratioP2;P2;SDS_P1;SDS_P2;PMS_P1;PMS_P2;Temp;Humidity;BMP_temperature;BMP_pressure;BME280_temperature;BME280_humidity;BME280_pressure;Samples;Min_cycle;Max_cycle;Signal;HPM_P1;HPM_P2
2023/03/25 00:02:18;;;;;;;1.73;1.00;;;14.70;63.70;;;;;;5028248;28;20197;-50
2023/03/25 00:04:43;;;;;;;2.23;1.17;;;14.60;63.20;;;;;;5034020;28;20430;-51
2023/03/25 00:07:09;;;;;;;1.50;1.10;;;14.80;63.40;;;;;;5040177;28;20483;-52
2023/03/25 00:09:35;;;;;;;3.03;1.07;;;14.60;62.00;;;;;;5027671;28;20235;-50
2023/03/25 00:12:00;;;;;;;2.13;1.30;;;14.00;62.90;;;;;;5028772;28;20196;-52
2023/03/25 00:14:26;;;;;;;5.10;1.60;;;13.80;65.30;;;;;;5030134;28;20193;-51
2023/03/25 00:16:52;;;;;;;1.10;1.00;;;13.90;65.80;;;;;;5029488;28;20213;-54
2023/03/25 00:19:20;;;;;;;1.77;0.80;;;14.00;64.30;;;;;;5025198;28;20197;-50
2023/03/25 00:21:49;;;;;;;1.27;0.80;;;13.60;65.30;;;;;;5025623;28;20984;-52
2023/03/25 00:24:18;;;;;;;1.53;0.80;;;13.10;65.60;;;;;;5027600;28;20451;-51
2023/03/25 00:26:45;;;;;;;1.07;0.90;;;13.10;65.90;;;;;;5027735;28;20483;-53
2023/03/25 00:29:12;;;;;;;1.30;0.90;;;13.40;66.30;;;;;;5048087;28;20486;-52
2023/03/25 00:31:38;;;;;;;0.63;0.63;;;13.40;65.70;;;;;;5035110;28;20455;-53
2023/03/25 00:34:04;;;;;;;1.27;0.60;;;13.20;65.60;;;;;;5029488;28;20452;-54
2023/03/25 00:36:29;;;;;;;4.40;0.80;;;13.20;65.10;;;;;;5030650;28;20440;-52
2023/03/25 00:38:55;;;;;;;2.47;1.10;;;13.00;63.90;;;;;;5029364;28;20235;-50
2023/03/25 00:41:26;;;;;;;2.30;0.80;;;13.10;64.10;;;;;;5028561;28;20201;-53
2023/03/25 00:43:54;;;;;;;3.13;0.97;;;13.10;63.50;;;;;;5030054;28;20201;-53
2023/03/25 00:46:21;;;;;;;1.43;0.80;;;13.20;63.10;;;;;;5028399;28;20446;-54
2023/03/25 00:48:47;;;;;;;0.60;0.60;;;13.30;62.00;;;;;;5027771;28;20523;-53
2023/03/25 00:51:20;;;;;;;0.80;0.60;;;13.30;61.50;;;;;;5029745;28;21006;-55
2023/03/25 00:53:46;;;;;;;2.27;0.70;;;13.40;60.80;;;;;;5028217;28;20194;-54
2023/03/25 00:56:12;;;;;;;2.00;0.80;;;13.30;60.80;;;;;;5028734;28;20464;-54
2023/03/25 00:58:39;;;;;;;1.80;1.00;;;13.30;60.70;;;;;;5026609;28;20518;-52
2023/03/25 01:01:11;;;;;;;2.67;1.10;;;13.20;60.50;;;;;;5029659;28;21271;-54
2023/03/25 01:03:37;;;;;;;1.20;1.00;;;13.30;60.80;;;;;;5028156;28;20447;-50
2023/03/25 01:06:08;;;;;;;0.87;0.70;;;13.20;59.60;;;;;;5028965;28;20452;-54
2023/03/25 01:08:33;;;;;;;1.37;0.80;;;13.40;59.80;;;;;;5029025;28;20487;-53
2023/03/25 01:10:59;;;;;;;0.97;0.80;;;13.40;59.80;;;;;;5028623;28;20494;-52
2023/03/25 01:13:25;;;;;;;1.50;0.60;;;13.60;59.60;;;;;;5029769;28;20186;-54
2023/03/25 01:15:50;;;;;;;2.07;0.80;;;13.40;59.60;;;;;;5031275;28;20740;-54
2023/03/25 01:18:16;;;;;;;0.80;0.77;;;13.30;59.70;;;;;;5033241;28;20657;-52
2023/03/25 01:20:42;;;;;;;1.97;1.07;;;13.50;59.50;;;;;;5025947;28;20271;-54
2023/03/25 01:23:08;;;;;;;3.47;1.97;;;13.40;59.00;;;;;;5033708;28;20240;-54
2023/03/25 01:25:35;;;;;;;3.30;0.80;;;13.40;59.00;;;;;;5031579;28;20526;-53
2023/03/25 01:28:01;;;;;;;2.53;0.83;;;13.40;58.70;;;;;;5032603;28;20243;-55
2023/03/25 01:30:26;;;;;;;1.37;0.97;;;13.40;58.90;;;;;;5030973;28;20451;-54
2023/03/25 01:32:52;;;;;;;3.90;1.07;;;13.20;58.70;;;;;;5022602;28;20213;-53
2023/03/25 01:35:18;;;;;;;3.53;1.00;;;13.10;59.10;;;;;;5032252;28;20191;-53
2023/03/25 01:37:45;;;;;;;1.07;0.80;;;13.00;59.30;;;;;;5033292;28;20657;-53
2023/03/25 01:40:17;;;;;;;4.27;1.10;;;12.90;59.60;;;;;;5030287;28;20199;-54
2023/03/25 01:42:43;;;;;;;1.10;0.70;;;12.70;60.10;;;;;;5032435;28;20502;-54
2023/03/25 01:45:21;;;;;;;0.80;0.80;;;12.70;60.50;;;;;;5033255;28;20919;-54
2023/03/25 01:47:51;;;;;;;2.93;1.30;;;12.80;60.80;;;;;;5031103;28;20224;-54
2023/03/25 01:50:18;;;;;;;2.47;1.00;;;12.80;60.90;;;;;;5022079;28;20497;-54
2023/03/25 01:52:46;;;;;;;2.00;0.70;;;12.90;60.80;;;;;;5032353;28;20450;-51
2023/03/25 01:55:13;;;;;;;1.47;1.00;;;13.00;61.00;;;;;;5032227;28;20947;-53
2023/03/25 01:57:42;;;;;;;2.13;0.90;;;13.20;60.90;;;;;;5032318;28;20471;-54
2023/03/25 02:00:09;;;;;;;2.10;0.90;;;13.30;60.60;;;;;;5031920;28;20523;-53
2023/03/25 02:02:39;;;;;;;1.23;0.70;;;13.40;60.30;;;;;;5032891;28;20542;-53
2023/03/25 02:05:24;;;;;;;1.77;1.20;;;13.30;60.20;;;;;;5031203;28;20506;-53
2023/03/25 02:07:51;;;;;;;1.03;0.80;;;13.30;60.30;;;;;;5028276;28;21017;-54
2023/03/25 02:10:18;;;;;;;1.50;0.90;;;13.30;59.90;;;;;;5028901;28;20444;-53
2023/03/25 02:12:45;;;;;;;4.07;1.20;;;13.10;59.90;;;;;;5029879;28;20452;-49
2023/03/25 02:15:13;;;;;;;2.40;0.93;;;12.90;60.00;;;;;;5030953;28;20938;-54
2023/03/25 02:18:13;;;;;;;2.53;0.80;;;12.90;60.40;;;;;;5031981;28;20547;-54
2023/03/25 02:21:02;;;;;;;1.30;0.90;;;12.80;59.70;;;;;;5023478;28;20487;-53
2023/03/25 02:23:40;;;;;;;0.80;0.80;;;12.80;60.20;;;;;;5022901;28;20459;-54
2023/03/25 02:26:31;;;;;;;3.13;1.00;;;12.80;59.50;;;;;;5030056;28;20456;-54
2023/03/25 02:29:22;;;;;;;2.50;0.90;;;12.80;59.60;;;;;;5025920;28;20443;-54
2023/03/25 02:32:10;;;;;;;0.80;0.80;;;13.00;59.60;;;;;;5031083;28;20456;-51
2023/03/25 02:35:03;;;;;;;1.43;0.70;;;13.40;59.10;;;;;;5018975;28;20452;-54
2023/03/25 02:38:13;;;;;;;1.63;1.00;;;13.50;59.00;;;;;;5029005;28;23056;-52
2023/03/25 02:40:45;;;;;;;0.70;0.70;;;13.60;58.60;;;;;;5009262;28;20462;-53
2023/03/25 02:43:23;;;;;;;1.27;0.80;;;13.60;59.00;;;;;;5029174;28;20440;-54
2023/03/25 02:45:56;;;;;;;2.53;1.17;;;13.60;59.20;;;;;;5025572;28;20458;-54
2023/03/25 02:48:30;;;;;;;1.97;1.03;;;13.60;59.10;;;;;;5029717;28;20490;-54
2023/03/25 02:50:57;;;;;;;1.60;1.10;;;13.40;59.10;;;;;;5029994;28;20456;-54
2023/03/25 02:53:29;;;;;;;2.40;0.90;;;13.00;60.80;;;;;;5031019;28;20450;-54
2023/03/25 02:55:59;;;;;;;2.50;1.00;;;12.90;61.70;;;;;;5024967;28;20467;-54
2023/03/25 02:58:26;;;;;;;0.90;0.80;;;12.70;62.10;;;;;;5029099;28;20447;-54
2023/03/25 03:00:52;;;;;;;0.97;0.70;;;12.20;64.50;;;;;;5029691;28;20447;-54
2023/03/25 03:03:18;;;;;;;0.80;0.80;;;11.90;63.40;;;;;;5026819;28;20479;-55
2023/03/25 03:05:49;;;;;;;4.73;0.90;;;11.40;64.70;;;;;;5028867;28;20452;-54
2023/03/25 03:08:17;;;;;;;0.60;0.57;;;11.40;65.80;;;;;;5048156;28;20223;-55
2023/03/25 03:11:02;;;;;;;0.80;0.70;;;11.40;66.90;;;;;;5030532;28;20444;-51
2023/03/25 03:13:58;;;;;;;0.70;0.60;;;11.40;66.70;;;;;;5026511;28;20819;-54
2023/03/25 03:16:32;;;;;;;0.60;0.60;;;11.60;67.00;;;;;;5028440;28;20451;-54
2023/03/25 03:19:01;;;;;;;0.67;0.67;;;11.80;66.00;;;;;;5023105;28;20446;-54
2023/03/25 03:21:45;;;;;;;0.70;0.60;;;12.00;65.40;;;;;;5029112;28;20468;-52
2023/03/25 03:24:40;;;;;;;0.73;0.73;;;12.30;64.20;;;;;;5029535;28;20893;-54
2023/03/25 03:27:33;;;;;;;0.90;0.70;;;12.60;63.10;;;;;;5021803;28;20506;-53
2023/03/25 03:30:16;;;;;;;0.70;0.70;;;12.80;62.00;;;;;;5026059;28;20452;-50
2023/03/25 03:32:56;;;;;;;2.30;0.90;;;13.00;61.60;;;;;;5026200;28;20456;-51
2023/03/25 03:35:41;;;;;;;1.63;0.67;;;13.10;61.20;;;;;;5029299;28;21295;-49
2023/03/25 03:38:12;;;;;;;0.80;0.60;;;13.20;61.20;;;;;;5027020;28;20436;-50
2023/03/25 03:40:42;;;;;;;1.43;0.60;;;13.20;61.00;;;;;;5029197;28;20489;-50
2023/03/25 03:43:16;;;;;;;1.00;0.50;;;13.20;60.70;;;;;;5030015;28;20450;-53
2023/03/25 03:45:48;;;;;;;0.70;0.70;;;13.30;60.50;;;;;;5026390;28;20501;-52
2023/03/25 03:48:25;;;;;;;1.23;0.50;;;13.30;60.80;;;;;;5026579;28;20537;-55
2023/03/25 03:51:13;;;;;;;1.27;0.60;;;13.30;60.80;;;;;;5025568;28;20542;-53
2023/03/25 03:53:43;;;;;;;1.03;0.60;;;13.20;60.40;;;;;;5028996;28;20510;-49
2023/03/25 03:56:15;;;;;;;0.70;0.67;;;13.20;60.40;;;;;;5029591;28;20467;-49
2023/03/25 03:58:42;;;;;;;0.80;0.80;;;12.90;61.00;;;;;;5025220;28;20509;-50
2023/03/25 04:01:18;;;;;;;0.70;0.70;;;12.70;61.10;;;;;;5029714;28;20901;-49
2023/03/25 04:03:56;;;;;;;1.53;0.70;;;12.30;59.60;;;;;;5029129;28;20480;-50
2023/03/25 04:06:55;;;;;;;0.80;0.73;;;12.40;59.80;;;;;;5029206;28;20497;-49
2023/03/25 04:09:56;;;;;;;0.63;0.63;;;12.00;59.50;;;;;;4987144;28;20533;-53
2023/03/25 04:12:36;;;;;;;0.70;0.60;;;12.10;60.20;;;;;;5024459;28;20464;-51
2023/03/25 04:15:04;;;;;;;0.93;0.60;;;12.00;59.60;;;;;;5031553;28;20451;-53
2023/03/25 04:17:31;;;;;;;1.30;0.60;;;12.00;59.60;;;;;;5044924;28;20444;-49
2023/03/25 04:19:58;;;;;;;0.70;0.70;;;12.20;59.60;;;;;;5023444;28;20454;-49
2023/03/25 04:22:23;;;;;;;0.70;0.70;;;12.40;59.50;;;;;;5029025;28;21135;-51
2023/03/25 04:24:50;;;;;;;1.63;0.70;;;12.40;58.90;;;;;;5029718;28;20471;-50
2023/03/25 04:27:17;;;;;;;1.23;0.67;;;12.50;58.80;;;;;;5028506;28;20255;-54
2023/03/25 04:29:43;;;;;;;0.70;0.60;;;12.60;58.60;;;;;;5036584;28;20447;-53
2023/03/25 04:32:13;;;;;;;0.70;0.50;;;12.70;58.40;;;;;;5034072;28;20489;-52
2023/03/25 04:34:39;;;;;;;0.77;0.70;;;12.70;58.10;;;;;;5030619;28;20432;-54
2023/03/25 04:37:05;;;;;;;1.43;0.67;;;12.70;58.00;;;;;;5028679;28;20444;-54
2023/03/25 04:39:31;;;;;;;0.77;0.60;;;12.80;57.90;;;;;;5029060;28;20454;-54
2023/03/25 04:42:00;;;;;;;0.70;0.50;;;12.90;58.00;;;;;;5029953;28;20656;-53
2023/03/25 04:44:27;;;;;;;0.70;0.60;;;12.90;57.70;;;;;;5027212;28;20201;-53
2023/03/25 04:46:54;;;;;;;1.67;0.60;;;13.00;57.80;;;;;;5008730;28;20997;-54
2023/03/25 04:49:22;;;;;;;1.13;1.03;;;13.00;57.80;;;;;;5031137;28;20455;-54
2023/03/25 04:51:50;;;;;;;0.63;0.60;;;13.00;57.50;;;;;;5028732;28;20442;-53
2023/03/25 04:54:19;;;;;;;0.90;0.60;;;13.00;57.70;;;;;;5032645;28;20480;-54
2023/03/25 04:56:46;;;;;;;0.73;0.73;;;12.90;57.70;;;;;;5028010;28;20579;-54
2023/03/25 04:59:12;;;;;;;1.93;0.80;;;12.80;57.90;;;;;;5030576;28;20447;-54
2023/03/25 05:01:41;;;;;;;0.80;0.60;;;12.80;57.90;;;;;;5032139;28;20439;-53
2023/03/25 05:04:11;;;;;;;2.40;0.90;;;12.80;57.90;;;;;;5027705;28;20193;-51
2023/03/25 05:06:38;;;;;;;1.30;0.70;;;13.00;57.90;;;;;;5033437;28;21026;-51
2023/03/25 05:09:06;;;;;;;0.70;0.63;;;12.90;57.80;;;;;;5020267;28;20509;-53
2023/03/25 05:11:35;;;;;;;1.40;0.60;;;12.90;58.10;;;;;;5031912;28;20448;-52
2023/03/25 05:14:01;;;;;;;1.13;0.77;;;12.80;58.10;;;;;;5028893;28;20448;-52
2023/03/25 05:16:27;;;;;;;0.60;0.60;;;12.90;58.20;;;;;;5031134;28;20444;-53
2023/03/25 05:18:53;;;;;;;0.80;0.80;;;12.90;58.10;;;;;;5031262;28;20197;-50
2023/03/25 05:21:19;;;;;;;0.80;0.60;;;12.90;58.20;;;;;;5022789;28;20940;-49
2023/03/25 05:23:44;;;;;;;1.00;0.70;;;12.90;58.20;;;;;;5028069;28;20705;-53
2023/03/25 05:26:13;;;;;;;0.97;0.60;;;13.00;58.20;;;;;;5035055;28;20197;-54
2023/03/25 05:28:40;;;;;;;2.00;0.80;;;13.00;58.10;;;;;;5028386;28;20487;-53
2023/03/25 05:31:09;;;;;;;0.80;0.80;;;12.90;58.10;;;;;;5025549;28;20443;-53
2023/03/25 05:33:41;;;;;;;1.50;0.70;;;12.70;58.60;;;;;;5033596;28;20427;-53
2023/03/25 05:36:15;;;;;;;2.50;0.80;;;12.80;58.90;;;;;;5030576;28;20451;-52
2023/03/25 05:38:42;;;;;;;1.10;0.80;;;12.80;58.80;;;;;;5049081;28;20956;-53
2023/03/25 05:41:15;;;;;;;4.47;0.90;;;12.70;58.80;;;;;;5032315;28;20444;-51
2023/03/25 05:43:49;;;;;;;0.70;0.50;;;12.80;59.20;;;;;;5050196;28;20429;-53
2023/03/25 05:46:16;;;;;;;7.40;0.80;;;12.70;59.10;;;;;;5023059;28;20450;-53
2023/03/25 05:48:42;;;;;;;1.90;0.70;;;12.60;59.60;;;;;;5027232;28;20581;-51
2023/03/25 05:51:14;;;;;;;1.53;0.70;;;12.60;59.70;;;;;;5026999;28;21230;-54
2023/03/25 05:53:42;;;;;;;1.00;1.00;;;12.70;59.60;;;;;;5033080;28;20188;-52
2023/03/25 05:56:08;;;;;;;1.03;0.90;;;12.70;59.60;;;;;;5031497;28;20472;-52
2023/03/25 05:58:35;;;;;;;1.00;0.80;;;12.80;59.50;;;;;;5032217;28;20904;-51
2023/03/25 06:01:01;;;;;;;4.43;1.10;;;12.80;59.40;;;;;;5031243;28;20562;-54
2023/03/25 06:03:27;;;;;;;4.90;0.90;;;12.80;59.10;;;;;;5031405;28;20536;-54
2023/03/25 06:05:53;;;;;;;1.70;0.93;;;12.90;59.30;;;;;;5032833;28;20633;-50
2023/03/25 06:08:24;;;;;;;0.70;0.70;;;12.80;59.00;;;;;;5031942;28;20781;-51
2023/03/25 06:10:53;;;;;;;2.43;1.10;;;12.80;59.20;;;;;;5031434;28;20197;-52
2023/03/25 06:13:19;;;;;;;1.70;1.00;;;12.70;59.60;;;;;;5029594;28;20443;-54
2023/03/25 06:15:44;;;;;;;1.10;0.77;;;12.70;59.80;;;;;;5028503;28;20571;-54
2023/03/25 06:18:10;;;;;;;2.33;0.90;;;12.70;59.80;;;;;;5030970;28;20974;-50
2023/03/25 06:20:36;;;;;;;1.33;0.80;;;12.70;59.90;;;;;;5027233;28;20268;-51
2023/03/25 06:23:01;;;;;;;2.43;1.07;;;12.70;60.30;;;;;;5023028;28;20229;-50
2023/03/25 06:25:27;;;;;;;2.30;0.90;;;12.40;60.40;;;;;;5027707;28;20641;-54
2023/03/25 06:27:54;;;;;;;5.70;1.17;;;12.40;61.10;;;;;;5031237;28;20340;-51
2023/03/25 06:30:20;;;;;;;2.37;1.00;;;12.50;62.70;;;;;;5028259;28;20201;-53
2023/03/25 06:32:49;;;;;;;3.13;1.10;;;12.60;61.70;;;;;;5030443;28;20455;-51
2023/03/25 06:35:18;;;;;;;0.70;0.60;;;12.80;60.90;;;;;;5038670;28;20197;-53
2023/03/25 06:37:48;;;;;;;1.90;1.00;;;12.70;60.30;;;;;;5032270;28;21017;-51
2023/03/25 06:40:14;;;;;;;1.90;0.90;;;12.80;60.70;;;;;;5031104;28;20464;-50
2023/03/25 06:42:41;;;;;;;1.37;1.20;;;12.80;60.40;;;;;;5029450;28;20943;-52
2023/03/25 06:45:07;;;;;;;2.07;0.90;;;12.90;60.30;;;;;;5027509;28;20506;-51
2023/03/25 06:47:33;;;;;;;3.10;1.00;;;12.90;60.00;;;;;;5027889;28;20491;-54
2023/03/25 06:49:59;;;;;;;2.10;0.80;;;12.90;59.60;;;;;;5024401;28;21029;-53
2023/03/25 06:52:24;;;;;;;3.10;0.97;;;12.80;59.30;;;;;;5025404;28;20531;-52
2023/03/25 06:54:50;;;;;;;2.30;1.00;;;12.90;59.70;;;;;;5026283;28;20219;-53
2023/03/25 06:57:16;;;;;;;1.73;1.00;;;13.00;58.70;;;;;;5030138;28;20279;-51
2023/03/25 06:59:41;;;;;;;2.53;1.00;;;12.90;58.00;;;;;;5033270;28;20263;-49
2023/03/25 07:02:09;;;;;;;4.33;1.10;;;12.90;59.10;;;;;;5029276;28;20189;-51
2023/03/25 07:04:35;;;;;;;1.07;0.97;;;12.80;58.50;;;;;;5029732;28;20193;-53
2023/03/25 07:07:00;;;;;;;2.20;1.37;;;12.70;58.80;;;;;;5030516;28;21190;-49
2023/03/25 07:09:26;;;;;;;3.73;1.23;;;12.60;58.90;;;;;;5032148;28;20561;-53
2023/03/25 07:11:52;;;;;;;2.10;0.80;;;12.50;58.80;;;;;;5019845;28;20197;-55
2023/03/25 07:14:17;;;;;;;1.50;1.40;;;12.80;58.80;;;;;;5029250;28;20198;-50
2023/03/25 07:16:43;;;;;;;1.73;0.90;;;12.90;58.50;;;;;;5029906;28;20197;-49
2023/03/25 07:19:08;;;;;;;3.27;1.10;;;13.30;58.20;;;;;;5027581;28;20193;-52
2023/03/25 07:21:34;;;;;;;2.60;0.90;;;13.50;57.40;;;;;;5027473;28;20217;-54
2023/03/25 07:23:59;;;;;;;3.47;0.90;;;13.70;56.40;;;;;;5025729;28;20196;-53
2023/03/25 07:26:25;;;;;;;1.53;1.13;;;13.40;56.70;;;;;;5029544;28;20193;-51
2023/03/25 07:28:51;;;;;;;3.03;0.90;;;13.30;57.00;;;;;;5030072;28;20692;-52
2023/03/25 07:31:16;;;;;;;2.83;0.80;;;13.40;56.90;;;;;;5026361;28;20451;-49
2023/03/25 07:33:42;;;;;;;1.80;0.83;;;13.20;57.50;;;;;;5026617;28;20221;-53
2023/03/25 07:36:10;;;;;;;1.33;1.17;;;12.80;57.90;;;;;;5025522;28;20281;-53
2023/03/25 07:38:36;;;;;;;1.57;0.90;;;12.90;58.30;;;;;;5026924;28;20789;-52
2023/03/25 07:41:20;;;;;;;3.07;0.93;;;12.90;58.00;;;;;;5025707;28;20440;-53
2023/03/25 07:43:45;;;;;;;3.90;1.00;;;12.80;57.80;;;;;;5036114;28;20859;-51
2023/03/25 07:46:11;;;;;;;2.07;1.20;;;12.70;58.10;;;;;;5029016;28;20543;-51
2023/03/25 07:48:37;;;;;;;1.23;0.80;;;13.00;58.40;;;;;;5028006;28;20592;-52
2023/03/25 07:51:02;;;;;;;1.80;1.10;;;13.10;58.40;;;;;;5028824;28;20264;-53
2023/03/25 07:53:28;;;;;;;2.90;1.33;;;13.40;57.80;;;;;;5030181;28;20194;-52
2023/03/25 07:55:54;;;;;;;3.93;1.20;;;13.30;57.50;;;;;;5029780;28;20228;-50
2023/03/25 07:58:19;;;;;;;2.03;1.10;;;13.50;57.90;;;;;;5029197;28;20272;-50
2023/03/25 08:00:45;;;;;;;4.57;1.10;;;13.50;57.60;;;;;;5034928;28;20195;-53
2023/03/25 08:03:12;;;;;;;2.30;0.80;;;13.70;57.80;;;;;;5032118;28;20193;-52
2023/03/25 08:05:46;;;;;;;2.03;1.00;;;14.00;57.00;;;;;;5028606;28;20447;-49
2023/03/25 08:08:11;;;;;;;5.43;0.80;;;14.20;55.60;;;;;;5028627;28;20577;-49
2023/03/25 08:10:37;;;;;;;1.10;1.00;;;14.20;55.90;;;;;;5029193;28;20535;-54
2023/03/25 08:13:03;;;;;;;3.20;1.50;;;14.40;55.30;;;;;;5030903;28;20193;-50
2023/03/25 08:15:28;;;;;;;2.37;0.90;;;14.40;55.20;;;;;;5027820;28;20216;-52
2023/03/25 08:17:54;;;;;;;1.17;0.93;;;14.10;56.00;;;;;;5048624;28;20723;-51
2023/03/25 08:20:20;;;;;;;0.93;0.70;;;14.10;55.50;;;;;;5032155;28;20726;-54
2023/03/25 08:22:46;;;;;;;1.73;1.00;;;14.10;55.60;;;;;;5030011;28;20255;-51
2023/03/25 08:25:12;;;;;;;1.73;1.27;;;14.30;55.40;;;;;;5029444;28;20216;-52
2023/03/25 08:27:37;;;;;;;1.50;0.87;;;14.20;54.30;;;;;;5029441;28;20236;-49
2023/03/25 08:30:04;;;;;;;1.77;1.10;;;14.20;54.60;;;;;;5028703;28;20191;-55
2023/03/25 08:32:30;;;;;;;2.60;0.70;;;13.80;55.40;;;;;;5040829;28;20201;-52
2023/03/25 08:34:56;;;;;;;1.67;0.90;;;13.80;55.90;;;;;;5027778;28;20464;-50
2023/03/25 08:37:24;;;;;;;1.80;0.80;;;13.80;55.50;;;;;;5028922;28;21009;-51
2023/03/25 08:39:50;;;;;;;1.80;0.97;;;13.60;56.10;;;;;;5029392;28;20205;-53
2023/03/25 08:42:16;;;;;;;1.20;0.93;;;13.60;56.50;;;;;;5027955;28;21055;-54
2023/03/25 08:44:42;;;;;;;1.27;1.00;;;13.50;56.50;;;;;;5029483;28;20193;-52
2023/03/25 08:47:08;;;;;;;1.10;0.60;;;13.60;56.30;;;;;;5028560;28;20514;-49
2023/03/25 08:49:34;;;;;;;1.20;1.00;;;13.70;56.40;;;;;;5030079;28;20193;-52
2023/03/25 08:52:00;;;;;;;3.47;0.90;;;13.60;56.40;;;;;;5028768;28;21011;-50
2023/03/25 08:54:26;;;;;;;5.50;0.80;;;13.70;56.80;;;;;;5030359;28;20211;-51
2023/03/25 08:56:52;;;;;;;0.93;0.60;;;13.50;56.60;;;;;;5030344;28;20552;-49
2023/03/25 08:59:18;;;;;;;2.03;0.73;;;13.10;58.10;;;;;;5028661;28;20923;-50
2023/03/25 09:01:44;;;;;;;0.60;0.60;;;13.10;59.40;;;;;;5028488;28;20194;-52
2023/03/25 09:04:10;;;;;;;1.30;1.00;;;12.90;59.30;;;;;;5029480;28;20585;-51
2023/03/25 09:06:38;;;;;;;0.70;0.50;;;12.80;60.50;;;;;;5027669;28;20193;-49
2023/03/25 09:09:04;;;;;;;1.60;0.97;;;12.70;59.10;;;;;;5030145;28;20416;-48
2023/03/25 09:11:33;;;;;;;1.10;0.70;;;12.70;59.70;;;;;;5028085;28;20444;-50
2023/03/25 09:14:02;;;;;;;3.47;0.80;;;12.60;59.30;;;;;;5029543;28;20916;-51
2023/03/25 09:16:29;;;;;;;1.47;0.80;;;12.20;60.50;;;;;;5028647;28;20451;-49
2023/03/25 09:18:54;;;;;;;0.50;0.50;;;12.00;62.40;;;;;;5030144;28;20430;-53
2023/03/25 09:21:20;;;;;;;0.90;0.70;;;12.00;63.20;;;;;;5022453;28;20455;-48
2023/03/25 09:23:45;;;;;;;0.70;0.60;;;12.30;64.40;;;;;;5018970;28;20552;-48
2023/03/25 09:26:11;;;;;;;1.87;0.70;;;12.20;63.90;;;;;;5027358;28;20194;-53
2023/03/25 09:28:37;;;;;;;1.43;1.00;;;12.50;66.40;;;;;;5032246;28;20303;-53
2023/03/25 09:31:03;;;;;;;1.77;1.23;;;12.80;65.90;;;;;;5027810;28;20551;-52
2023/03/25 09:33:28;;;;;;;1.27;0.60;;;13.20;64.90;;;;;;5024147;28;20193;-49
2023/03/25 09:35:54;;;;;;;0.53;0.53;;;13.30;62.60;;;;;;5027830;28;20186;-51
2023/03/25 09:38:20;;;;;;;0.90;0.60;;;13.50;61.90;;;;;;5028770;28;20202;-53
2023/03/25 09:40:45;;;;;;;1.47;0.70;;;13.40;60.60;;;;;;5036168;28;20192;-52
2023/03/25 09:43:29;;;;;;;1.53;0.70;;;13.40;61.40;;;;;;5035668;28;20190;-54
2023/03/25 09:45:56;;;;;;;0.83;0.80;;;13.40;62.20;;;;;;5029717;28;20281;-53
2023/03/25 09:48:42;;;;;;;1.13;0.80;;;13.60;62.80;;;;;;5029467;28;20556;-53
2023/03/25 09:51:36;;;;;;;0.80;0.70;;;13.60;62.90;;;;;;5024083;28;22299;-54
2023/03/25 09:54:06;;;;;;;0.97;0.60;;;13.70;62.90;;;;;;5027382;28;20533;-54
2023/03/25 09:56:36;;;;;;;3.50;1.07;;;14.10;62.40;;;;;;5028478;28;20487;-54
2023/03/25 09:59:08;;;;;;;0.53;0.50;;;14.40;61.80;;;;;;5030848;28;20451;-55
2023/03/25 10:01:34;;;;;;;0.80;0.80;;;14.70;60.90;;;;;;5013318;28;20961;-55
2023/03/25 10:04:30;;;;;;;1.13;0.80;;;14.90;60.30;;;;;;5026230;28;20452;-52
2023/03/25 10:07:26;;;;;;;1.33;0.70;;;15.00;59.00;;;;;;5029209;28;20189;-55
2023/03/25 10:10:23;;;;;;;1.67;0.93;;;15.30;58.60;;;;;;5026873;28;20503;-53
2023/03/25 10:13:01;;;;;;;1.37;0.80;;;15.00;59.20;;;;;;5030376;28;20455;-55
2023/03/25 10:16:05;;;;;;;1.80;1.00;;;15.10;59.00;;;;;;5023207;28;20851;-54
2023/03/25 10:18:50;;;;;;;0.70;0.70;;;14.50;58.60;;;;;;5028927;28;20455;-55
2023/03/25 10:21:23;;;;;;;4.30;0.93;;;14.30;59.90;;;;;;5029789;28;20996;-55
2023/03/25 10:23:48;;;;;;;0.70;0.70;;;14.20;60.20;;;;;;5028789;28;20483;-55
2023/03/25 10:26:24;;;;;;;1.07;0.70;;;14.10;60.20;;;;;;5031011;28;20994;-53
2023/03/25 10:28:55;;;;;;;0.97;0.70;;;14.40;60.40;;;;;;5024477;28;20241;-54
2023/03/25 10:31:25;;;;;;;1.67;1.03;;;14.60;60.20;;;;;;5024668;28;20447;-51
2023/03/25 10:33:56;;;;;;;1.10;0.87;;;14.60;59.60;;;;;;5024827;28;21008;-54
2023/03/25 10:36:35;;;;;;;1.50;0.90;;;14.80;61.20;;;;;;5021338;28;20552;-54
2023/03/25 10:39:03;;;;;;;0.97;0.70;;;14.90;59.50;;;;;;5031504;28;21202;-53
2023/03/25 10:41:38;;;;;;;2.10;1.00;;;15.00;58.40;;;;;;5030037;28;20530;-54
2023/03/25 10:44:10;;;;;;;1.27;0.87;;;15.10;57.90;;;;;;5020986;28;20479;-49
2023/03/25 10:46:52;;;;;;;1.60;1.00;;;15.20;57.10;;;;;;5028383;28;20468;-49
2023/03/25 10:49:21;;;;;;;1.27;0.80;;;15.10;56.30;;;;;;5028051;28;20495;-49
2023/03/25 10:51:53;;;;;;;1.07;0.67;;;15.30;57.30;;;;;;5008314;28;21337;-46
2023/03/25 10:54:22;;;;;;;0.60;0.57;;;15.00;55.10;;;;;;5029903;28;20483;-50
2023/03/25 10:56:54;;;;;;;1.50;0.80;;;14.70;54.30;;;;;;5028366;28;21034;-50
2023/03/25 10:59:33;;;;;;;0.77;0.63;;;14.60;54.80;;;;;;5027417;28;20452;-50
2023/03/25 11:02:16;;;;;;;1.93;0.70;;;14.60;54.50;;;;;;5023801;28;20887;-49
2023/03/25 11:04:44;;;;;;;1.13;0.70;;;14.50;54.20;;;;;;5035314;28;20455;-48
2023/03/25 11:07:22;;;;;;;1.00;1.00;;;14.20;54.20;;;;;;5028575;28;20550;-49
2023/03/25 11:09:50;;;;;;;0.83;0.60;;;14.20;54.20;;;;;;5028983;28;20454;-48
2023/03/25 11:12:19;;;;;;;1.90;1.10;;;14.30;53.90;;;;;;5027546;28;20448;-51
2023/03/25 11:14:54;;;;;;;1.57;0.80;;;14.40;54.30;;;;;;5021452;28;20939;-46
2023/03/25 11:17:24;;;;;;;1.10;0.70;;;14.30;54.10;;;;;;5022309;28;20451;-48
2023/03/25 11:20:00;;;;;;;0.70;0.70;;;14.40;54.60;;;;;;5022173;28;20440;-50
2023/03/25 11:22:29;;;;;;;1.97;0.70;;;14.60;54.00;;;;;;5028388;28;20455;-46
2023/03/25 11:25:01;;;;;;;0.87;0.87;;;14.50;53.40;;;;;;5029241;28;20937;-51
2023/03/25 11:27:29;;;;;;;0.70;0.60;;;14.70;53.30;;;;;;5030687;28;20519;-46
2023/03/25 11:30:00;;;;;;;1.53;0.80;;;14.70;53.20;;;;;;5026445;28;20440;-50
2023/03/25 11:32:37;;;;;;;3.90;0.60;;;14.90;53.10;;;;;;5033152;28;20448;-49
2023/03/25 11:35:15;;;;;;;0.90;0.70;;;14.70;53.20;;;;;;5021070;28;20868;-49
2023/03/25 11:37:46;;;;;;;0.70;0.70;;;14.70;54.10;;;;;;5027733;28;20442;-50
2023/03/25 11:40:17;;;;;;;1.97;1.40;;;14.80;54.20;;;;;;5028410;28;20523;-45
2023/03/25 11:42:48;;;;;;;0.50;0.50;;;15.10;53.60;;;;;;5028860;28;20444;-49
2023/03/25 11:45:25;;;;;;;2.80;0.60;;;15.40;53.20;;;;;;5029008;28;20483;-50
2023/03/25 11:47:52;;;;;;;1.43;0.87;;;15.40;52.20;;;;;;5025162;28;20530;-49
2023/03/25 11:50:25;;;;;;;1.20;0.70;;;15.50;51.60;;;;;;5027366;28;20541;-46
2023/03/25 11:52:57;;;;;;;3.63;0.80;;;15.50;51.20;;;;;;5028458;28;20927;-46
2023/03/25 11:55:24;;;;;;;4.03;0.90;;;15.50;50.50;;;;;;5028551;28;20574;-50
2023/03/25 11:57:53;;;;;;;0.83;0.80;;;15.80;51.20;;;;;;5029230;28;20463;-50
2023/03/25 12:00:28;;;;;;;2.47;1.27;;;15.80;50.30;;;;;;5023485;28;22532;-45
2023/03/25 12:03:16;;;;;;;0.90;0.77;;;15.80;50.20;;;;;;5028142;28;20450;-48
2023/03/25 12:05:42;;;;;;;1.40;1.00;;;15.90;49.30;;;;;;5018506;28;20609;-50
2023/03/25 12:08:15;;;;;;;3.10;1.40;;;16.20;48.80;;;;;;5025466;28;20574;-46
2023/03/25 12:10:53;;;;;;;1.40;0.93;;;16.50;49.30;;;;;;5023062;28;20193;-47
2023/03/25 12:13:45;;;;;;;2.37;1.00;;;16.80;48.30;;;;;;5025611;28;20467;-45
2023/03/25 12:16:16;;;;;;;1.60;0.70;;;16.40;46.30;;;;;;5025191;28;20468;-45
2023/03/25 12:19:07;;;;;;;1.80;0.77;;;16.00;46.10;;;;;;5032833;28;20458;-50
2023/03/25 12:21:57;;;;;;;2.70;0.90;;;15.70;46.70;;;;;;5029763;28;20470;-45
2023/03/25 12:24:41;;;;;;;1.20;1.10;;;15.50;47.50;;;;;;5028779;28;20459;-49
2023/03/25 12:27:18;;;;;;;1.00;0.80;;;15.50;48.40;;;;;;5023435;28;20471;-46
2023/03/25 12:29:50;;;;;;;6.27;0.90;;;15.80;48.40;;;;;;5025166;28;20447;-49
2023/03/25 12:32:47;;;;;;;1.97;0.80;;;16.10;48.00;;;;;;5027923;28;20463;-48
2023/03/25 12:35:46;;;;;;;2.53;0.77;;;16.20;47.70;;;;;;5022912;28;20448;-47
2023/03/25 12:38:28;;;;;;;0.90;0.77;;;15.90;46.50;;;;;;5025558;28;20505;-46
2023/03/25 12:40:57;;;;;;;0.60;0.60;;;15.90;47.50;;;;;;5017122;28;20436;-47
2023/03/25 12:43:48;;;;;;;1.60;0.80;;;16.20;47.30;;;;;;5028770;28;20459;-47
2023/03/25 12:46:41;;;;;;;0.80;0.70;;;16.20;47.30;;;;;;5028495;28;20598;-44
2023/03/25 12:49:46;;;;;;;1.43;0.80;;;16.00;47.30;;;;;;5022026;28;20491;-45
2023/03/25 12:52:34;;;;;;;1.90;0.80;;;15.50;47.80;;;;;;5025353;28;20459;-46
2023/03/25 12:55:50;;;;;;;1.87;0.90;;;15.50;49.10;;;;;;5027513;28;20455;-47
2023/03/25 12:58:34;;;;;;;1.60;0.80;;;15.40;48.90;;;;;;5008698;28;21289;-49
2023/03/25 13:01:18;;;;;;;0.97;0.70;;;15.10;52.70;;;;;;5033854;28;20521;-48
2023/03/25 13:03:52;;;;;;;2.10;0.73;;;14.80;53.60;;;;;;5026335;28;20448;-50
2023/03/25 13:06:17;;;;;;;0.70;0.63;;;15.10;54.60;;;;;;5028839;28;20496;-52
2023/03/25 13:09:01;;;;;;;1.93;0.70;;;15.20;53.20;;;;;;5026769;28;20515;-49
2023/03/25 13:11:31;;;;;;;0.70;0.60;;;15.60;52.40;;;;;;5028401;28;20217;-51